Time;durP1;ratioP1;P1;durP2;ratioP2;P2;SDS_P1;SDS_P2;PMS_P1;PMS_P2;Temp;Humidity;BMP_temperature;BMP_pressure;BME280_temperature;BME280_humidity;BME280_pressure;Samples;Min_cycle;Max_cycle;Signal;HPM_P1;HPM_P2
2023/09/24 00:00:48;;;;;;;6.18;4.80;;;;;;;5.34;100.00;93707.00;2104379;28;20451;-82
2023/09/24 00:01:49;;;;;;;5.50;4.70;;;;;;;5.37;100.00;93708.94;2097940;28;20379;-81
2023/09/24 00:02:50;;;;;;;6.47;4.57;;;;;;;5.42;100.00;93705.94;2091680;28;20037;-82
2023/09/24 00:03:51;;;;;;;5.28;4.50;;;;;;;5.44;100.00;93706.31;2110571;28;20381;-81
2023/09/24 00:04:55;;;;;;;5.40;4.57;;;;;;;5.43;100.00;93707.44;2106421;28;20035;-82
2023/09/24 00:05:59;;;;;;;5.22;4.60;;;;;;;5.40;100.00;93713.50;2098966;28;20114;-81
2023/09/24 00:07:00;;;;;;;5.13;4.22;;;;;;;5.46;100.00;93714.66;2092765;28;20478;-83
2023/09/24 00:08:00;;;;;;;4.75;4.28;;;;;;;5.42;100.00;93711.22;2097853;28;20024;-82
2023/09/24 00:09:03;;;;;;;6.53;4.45;;;;;;;5.45;100.00;93715.81;2097771;28;20449;-82
2023/09/24 00:10:04;;;;;;;4.47;4.07;;;;;;;5.46;100.00;93714.66;2101351;28;20025;-81
2023/09/24 00:11:06;;;;;;;4.13;3.72;;;;;;;5.46;100.00;93713.91;2102305;27;20056;-83
2023/09/24 00:12:07;;;;;;;4.15;3.75;;;;;;;5.46;100.00;93717.31;2114608;28;20023;-81
2023/09/24 00:13:08;;;;;;;4.13;3.65;;;;;;;5.41;100.00;93720.31;2097890;28;20035;-81
2023/09/24 00:14:10;;;;;;;5.05;3.50;;;;;;;5.41;100.00;93711.63;2097620;28;20013;-81
2023/09/24 00:15:16;;;;;;;3.33;2.90;;;;;;;5.33;100.00;93713.44;2106152;28;20089;-81
2023/09/24 00:16:17;;;;;;;3.50;2.78;;;;;;;5.39;100.00;93717.25;2098049;28;20035;-80
2023/09/24 00:17:18;;;;;;;3.47;2.60;;;;;;;5.39;100.00;93711.97;2105959;28;20115;-81
2023/09/24 00:18:19;;;;;;;3.58;2.60;;;;;;;5.43;100.00;93710.09;2106074;28;20092;-82
2023/09/24 00:19:20;;;;;;;2.70;2.50;;;;;;;5.44;100.00;93716.91;2094181;28;20020;-82
2023/09/24 00:20:21;;;;;;;4.13;2.50;;;;;;;5.41;100.00;93716.91;2105915;28;20044;-80
2023/09/24 00:21:22;;;;;;;2.60;2.40;;;;;;;5.37;100.00;93716.88;2097718;28;20056;-79
2023/09/24 00:22:23;;;;;;;3.53;3.22;;;;;;;5.33;100.00;93717.97;2089218;28;20033;-81
2023/09/24 00:23:24;;;;;;;2.22;2.00;;;;;;;5.32;100.00;93716.47;2097322;28;20055;-80
2023/09/24 00:24:25;;;;;;;3.58;1.92;;;;;;;5.30;100.00;93716.81;2097729;28;20150;-80
2023/09/24 00:25:32;;;;;;;2.10;1.88;;;;;;;5.27;100.00;93715.69;2094572;28;20690;-81
2023/09/24 00:26:35;;;;;;;3.08;1.55;;;;;;;5.23;100.00;93722.84;2091948;28;20025;-82
2023/09/24 00:27:36;;;;;;;3.20;1.90;;;;;;;5.29;100.00;93717.94;2096902;28;20060;-82
2023/09/24 00:28:37;;;;;;;2.53;1.90;;;;;;;5.21;100.00;93727.72;2096173;28;20036;-80
2023/09/24 00:29:39;;;;;;;2.60;2.10;;;;;;;5.07;100.00;93721.56;2089586;28;20474;-80
2023/09/24 00:30:42;;;;;;;3.50;1.75;;;;;;;5.06;100.00;93715.50;2094796;28;20574;-81
2023/09/24 00:31:46;;;;;;;1.92;1.70;;;;;;;5.02;100.00;93723.41;2095123;28;20137;-82
2023/09/24 00:32:47;;;;;;;2.17;1.80;;;;;;;5.07;100.00;93719.66;2092591;28;20040;-81
2023/09/24 00:33:48;;;;;;;2.13;1.80;;;;;;;5.08;100.00;93723.06;2097435;28;20035;-80
2023/09/24 00:34:49;;;;;;;1.77;1.65;;;;;;;5.11;100.00;93725.00;2089518;28;20035;-82
2023/09/24 00:35:50;;;;;;;3.58;1.80;;;;;;;5.00;100.00;93720.38;2089272;28;20032;-81
2023/09/24 00:36:53;;;;;;;2.88;1.70;;;;;;;4.99;100.00;93721.47;2098756;28;20485;-82
2023/09/24 00:37:54;;;;;;;2.53;1.50;;;;;;;4.95;100.00;93725.97;2097926;28;20401;-82
2023/09/24 00:38:55;;;;;;;3.70;1.98;;;;;;;4.92;100.00;93724.06;2102154;28;20043;-80
2023/09/24 00:39:56;;;;;;;8.07;1.83;;;;;;;4.94;100.00;93729.00;2111190;28;20050;-81
2023/09/24 00:40:57;;;;;;;2.60;1.90;;;;;;;4.97;100.00;93721.09;2105558;28;20050;-80
2023/09/24 00:41:58;;;;;;;2.65;1.80;;;;;;;5.00;100.00;93724.88;2089417;28;20025;-81
2023/09/24 00:42:59;;;;;;;1.83;1.50;;;;;;;4.92;100.00;93728.63;2097773;28;20024;-83
2023/09/24 00:44:01;;;;;;;2.83;1.67;;;;;;;4.89;100.00;93724.78;2105699;28;20556;-80
2023/09/24 00:45:03;;;;;;;2.75;1.90;;;;;;;4.91;100.00;93732.38;2097704;28;20033;-80
2023/09/24 00:46:04;;;;;;;2.75;2.00;;;;;;;4.98;100.00;93735.09;2097203;28;20020;-81
2023/09/24 00:47:11;;;;;;;4.15;1.90;;;;;;;4.96;100.00;93730.19;2093278;28;20016;-80
2023/09/24 00:48:12;;;;;;;1.65;1.50;;;;;;;4.83;100.00;93731.56;2090610;28;20044;-80
2023/09/24 00:49:15;;;;;;;2.60;1.60;;;;;;;4.76;100.00;93734.88;2082397;28;20497;-81
2023/09/24 00:50:16;;;;;;;2.50;1.80;;;;;;;4.73;100.00;93734.84;2082932;28;20092;-80
2023/09/24 00:51:21;;;;;;;2.00;1.70;;;;;;;4.77;100.00;93725.81;2089346;28;20115;-80
2023/09/24 00:52:25;;;;;;;2.30;1.75;;;;;;;4.78;100.00;93729.22;2090615;28;20020;-82
2023/09/24 00:53:28;;;;;;;3.85;1.90;;;;;;;4.76;100.00;93734.13;2098052;28;20488;-83
2023/09/24 00:54:30;;;;;;;2.35;1.70;;;;;;;4.76;100.00;93731.47;2106382;28;20036;-81
2023/09/24 00:55:32;;;;;;;3.63;2.00;;;;;;;4.74;100.00;93734.50;2105561;28;20415;-80
2023/09/24 00:56:33;;;;;;;2.00;1.80;;;;;;;4.77;100.00;93736.41;2097350;28;20452;-82
2023/09/24 00:57:35;;;;;;;2.67;1.88;;;;;;;4.79;100.00;93733.41;2089256;28;20110;-80
2023/09/24 00:58:36;;;;;;;3.00;1.70;;;;;;;4.86;100.00;93730.81;2089029;28;20029;-81
2023/09/24 00:59:38;;;;;;;4.53;1.92;;;;;;;4.81;100.00;93741.75;2081232;28;20025;-81
2023/09/24 01:00:39;;;;;;;2.13;1.75;;;;;;;4.77;100.00;93739.06;2089547;28;20051;-80
2023/09/24 01:01:40;;;;;;;3.92;2.15;;;;;;;4.75;100.00;93741.31;2105773;28;20441;-81
2023/09/24 01:02:43;;;;;;;2.38;2.00;;;;;;;4.68;100.00;93735.94;2096756;28;20020;-81
2023/09/24 01:03:46;;;;;;;2.63;1.92;;;;;;;4.75;100.00;93737.91;2105176;28;20024;-80
2023/09/24 01:04:49;;;;;;;2.20;1.77;;;;;;;4.76;100.00;93734.13;2097670;28;20373;-80
2023/09/24 01:05:54;;;;;;;5.65;2.10;;;;;;;4.73;100.00;93738.25;2112001;27;20519;-80
2023/09/24 01:07:00;;;;;;;4.38;1.90;;;;;;;4.74;100.00;93737.16;2097221;28;20025;-80
2023/09/24 01:08:02;;;;;;;2.30;1.90;;;;;;;4.77;100.00;93730.34;2090902;28;20370;-80
2023/09/24 01:09:08;;;;;;;1.90;1.70;;;;;;;4.76;100.00;93739.41;2105415;28;20016;-79
2023/09/24 01:10:11;;;;;;;2.13;1.73;;;;;;;4.79;100.00;93733.41;2105628;28;20032;-80
2023/09/24 01:11:12;;;;;;;2.55;1.80;;;;;;;4.66;100.00;93732.91;2097832;28;20021;-80
2023/09/24 01:12:23;;;;;;;2.72;1.88;;;;;;;4.65;100.00;93739.28;2101318;28;20024;-79
2023/09/24 01:13:25;;;;;;;2.70;1.88;;;;;;;4.69;100.00;93739.34;2091910;28;20388;-81
2023/09/24 01:14:27;;;;;;;1.70;1.60;;;;;;;4.74;100.00;93739.00;2097548;28;20035;-81
2023/09/24 01:15:27;;;;;;;1.63;1.52;;;;;;;4.76;100.00;93740.19;2105775;28;20039;-81
2023/09/24 01:16:29;;;;;;;1.77;1.50;;;;;;;4.64;100.00;93737.03;2088659;28;20111;-80
2023/09/24 01:17:31;;;;;;;2.15;1.75;;;;;;;4.65;100.00;93743.84;2087084;28;20045;-81
2023/09/24 01:18:34;;;;;;;2.85;1.50;;;;;;;4.66;100.00;93740.09;2097391;28;20108;-82
2023/09/24 01:19:35;;;;;;;1.83;1.55;;;;;;;4.61;100.00;93741.16;2097562;28;20028;-82
2023/09/24 01:20:36;;;;;;;2.20;1.65;;;;;;;4.56;100.00;93738.81;2101850;28;20027;-79
2023/09/24 01:21:37;;;;;;;1.65;1.55;;;;;;;4.52;100.00;93732.72;2097279;28;20023;-79
2023/09/24 01:22:40;;;;;;;2.30;1.70;;;;;;;4.58;100.00;93733.19;2081109;28;20021;-82
2023/09/24 01:23:45;;;;;;;2.58;1.70;;;;;;;4.53;100.00;93732.38;2081186;28;20029;-83
2023/09/24 01:24:46;;;;;;;1.88;1.50;;;;;;;4.49;100.00;93726.28;2082219;28;20021;-80
2023/09/24 01:25:47;;;;;;;2.55;1.67;;;;;;;4.54;100.00;93731.25;2080815;28;20634;-81
2023/09/24 01:26:49;;;;;;;1.92;1.65;;;;;;;4.57;100.00;93731.66;2089727;28;20422;-80
2023/09/24 01:27:50;;;;;;;1.95;1.65;;;;;;;4.57;100.00;93729.03;2097579;28;20031;-82
2023/09/24 01:28:51;;;;;;;1.70;1.52;;;;;;;4.60;100.00;93728.28;2090221;28;20103;-81
2023/09/24 01:29:53;;;;;;;2.13;1.65;;;;;;;4.64;100.00;93727.19;2080960;28;20078;-81
2023/09/24 01:30:54;;;;;;;2.15;1.67;;;;;;;4.66;100.00;93732.91;2087719;28;20025;-80
2023/09/24 01:31:55;;;;;;;2.95;2.03;;;;;;;4.65;100.00;93725.31;2088945;28;20059;-80
2023/09/24 01:32:57;;;;;;;3.58;2.00;;;;;;;4.71;100.00;93732.56;2097225;28;20099;-82
2023/09/24 01:33:59;;;;;;;2.60;1.88;;;;;;;4.73;100.00;93725.00;2102326;28;20110;-79
2023/09/24 01:35:03;;;;;;;3.42;1.73;;;;;;;4.59;100.00;93724.09;2105551;28;20024;-82
2023/09/24 01:36:05;;;;;;;3.65;1.95;;;;;;;4.63;100.00;93727.56;2097412;28;20016;-82
2023/09/24 01:37:09;;;;;;;2.22;1.60;;;;;;;4.56;100.00;93717.66;2097204;28;20389;-82
2023/09/24 01:38:11;;;;;;;2.42;1.40;;;;;;;4.58;100.00;93720.69;2106301;28;20051;-81
2023/09/24 01:39:18;;;;;;;1.85;1.50;;;;;;;4.53;100.00;93718.38;2113790;28;20030;-82
2023/09/24 01:40:21;;;;;;;2.08;1.60;;;;;;;4.50;100.00;93717.22;2097882;28;20056;-81
2023/09/24 01:41:25;;;;;;;1.77;1.30;;;;;;;4.53;100.00;93719.16;2089697;28;20407;-80
2023/09/24 01:42:26;;;;;;;1.70;1.45;;;;;;;4.54;100.00;93731.25;2089051;28;20063;-81
2023/09/24 01:43:27;;;;;;;1.92;1.50;;;;;;;4.57;100.00;93719.19;2080948;28;20950;-80
2023/09/24 01:44:32;;;;;;;1.73;1.40;;;;;;;4.47;100.00;93719.81;2088945;28;20033;-81
2023/09/24 01:45:34;;;;;;;2.42;1.38;;;;;;;4.53;100.00;93724.44;2089322;28;20021;-80
2023/09/24 01:46:35;;;;;;;2.47;1.60;;;;;;;4.53;100.00;93726.31;2105474;28;20035;-80
2023/09/24 01:47:37;;;;;;;2.88;1.58;;;;;;;4.49;100.00;93738.75;2097997;28;20036;-81
2023/09/24 01:48:38;;;;;;;2.55;1.52;;;;;;;4.44;100.00;93741.72;2100929;28;20024;-80
2023/09/24 01:49:39;;;;;;;2.60;1.58;;;;;;;4.44;100.00;93739.84;2101549;28;20024;-81
2023/09/24 01:50:41;;;;;;;1.70;1.58;;;;;;;4.40;100.00;93735.63;2089199;28;20397;-82
2023/09/24 01:51:44;;;;;;;1.88;1.60;;;;;;;4.31;100.00;93737.78;2093097;28;20032;-80
2023/09/24 01:52:45;;;;;;;1.50;1.35;;;;;;;4.29;100.00;93730.97;2090567;28;20120;-81
2023/09/24 01:53:48;;;;;;;1.40;1.20;;;;;;;4.31;100.00;93743.84;2090669;28;20066;-80
2023/09/24 01:54:48;;;;;;;2.13;1.73;;;;;;;4.35;100.00;93735.97;2103187;28;20053;-80
2023/09/24 01:55:49;;;;;;;1.50;1.35;;;;;;;4.36;100.00;93732.19;2098695;28;20371;-80
2023/09/24 01:56:54;;;;;;;1.83;1.48;;;;;;;4.38;100.00;93733.31;2103045;28;20028;-80
2023/09/24 01:57:56;;;;;;;1.77;1.30;;;;;;;4.37;100.00;93734.47;2086906;28;20099;-81
2023/09/24 01:58:59;;;;;;;2.25;1.50;;;;;;;4.26;100.00;93739.63;2094703;28;20021;-81
2023/09/24 02:00:06;;;;;;;3.22;1.60;;;;;;;4.17;100.00;93731.22;2097130;28;20048;-81
2023/09/24 02:01:07;;;;;;;1.30;1.20;;;;;;;4.22;100.00;93736.19;2099047;28;20556;-80
2023/09/24 02:02:09;;;;;;;1.50;1.20;;;;;;;4.24;100.00;93733.16;2105347;28;20028;-80
2023/09/24 02:03:10;;;;;;;2.17;1.00;;;;;;;4.13;100.00;93741.00;2097174;28;20403;-80
2023/09/24 02:04:11;;;;;;;1.63;1.42;;;;;;;4.09;100.00;93739.41;2090981;28;20055;-81
2023/09/24 02:05:13;;;;;;;1.38;1.20;;;;;;;4.19;100.00;93730.84;2090131;28;20049;-82
2023/09/24 02:06:15;;;;;;;3.50;1.52;;;;;;;4.26;100.00;93728.28;2097353;28;20024;-81
2023/09/24 02:07:16;;;;;;;1.58;1.30;;;;;;;4.23;100.00;93729.00;2105568;28;20185;-82
2023/09/24 02:08:17;;;;;;;1.35;1.25;;;;;;;4.29;100.00;93735.50;2097408;28;20024;-81
2023/09/24 02:09:18;;;;;;;1.92;1.20;;;;;;;4.24;100.00;93736.56;2104772;28;20027;-82
2023/09/24 02:10:20;;;;;;;1.33;1.13;;;;;;;4.27;100.00;93732.47;2105224;28;20039;-81
2023/09/24 02:11:21;;;;;;;1.35;1.20;;;;;;;4.31;100.00;93733.25;2088829;28;20128;-80
2023/09/24 02:12:28;;;;;;;1.50;1.13;;;;;;;4.27;100.00;93735.09;2091769;28;20040;-80
2023/09/24 02:13:29;;;;;;;1.38;1.27;;;;;;;4.17;100.00;93751.59;2089520;28;20587;-81
2023/09/24 02:14:30;;;;;;;2.22;1.25;;;;;;;4.08;100.00;93748.44;2080680;28;20029;-81
2023/09/24 02:15:31;;;;;;;1.23;1.10;;;;;;;4.12;100.00;93744.72;2096984;28;20028;-79
2023/09/24 02:16:33;;;;;;;1.52;1.30;;;;;;;4.17;100.00;93746.28;2092416;28;20056;-81
2023/09/24 02:17:34;;;;;;;1.73;1.27;;;;;;;4.09;100.00;93750.00;2090320;28;20175;-82
2023/09/24 02:18:36;;;;;;;1.20;1.00;;;;;;;4.08;100.00;93743.16;2080554;28;20437;-81
2023/09/24 02:19:37;;;;;;;2.88;1.25;;;;;;;4.04;100.00;93743.13;2089344;28;20025;-81
2023/09/24 02:20:41;;;;;;;1.05;0.93;;;;;;;4.00;100.00;93740.44;2093138;28;20299;-82
